createdAt,value
2018-12-14T00:01:56.116Z,1.50
2018-12-14T00:04:24.435Z,1.50
2018-12-14T00:06:52.572Z,1.50
2018-12-14T00:09:21.020Z,1.50
2018-12-14T00:11:49.220Z,1.50
2018-12-14T00:14:17.412Z,1.50
2018-12-14T00:16:46.160Z,1.50
2018-12-14T00:19:14.284Z,1.50
2018-12-14T00:21:42.648Z,1.50
2018-12-14T00:24:10.788Z,1.50
2018-12-14T00:26:39.016Z,1.50
2018-12-14T00:29:07.229Z,1.40
2018-12-14T00:31:35.388Z,1.40
2018-12-14T00:34:03.586Z,1.50
2018-12-14T00:36:31.716Z,1.50
2018-12-14T00:39:00.244Z,1.50
2018-12-14T00:41:28.351Z,1.50
2018-12-14T00:43:56.535Z,1.40
2018-12-14T00:46:24.897Z,1.40
2018-12-14T00:48:53.035Z,1.30
2018-12-14T00:51:21.160Z,1.30
2018-12-14T00:53:49.363Z,1.30
2018-12-14T00:56:17.491Z,1.30
2018-12-14T00:58:45.711Z,1.30
2018-12-14T01:01:14.083Z,1.20
2018-12-14T01:03:42.276Z,1.30
2018-12-14T01:06:10.510Z,1.30
2018-12-14T01:08:38.672Z,1.30
2018-12-14T01:11:06.962Z,1.30
2018-12-14T01:13:35.075Z,1.30
2018-12-14T01:16:03.378Z,1.30
2018-12-14T01:18:31.614Z,1.30
2018-12-14T01:20:59.744Z,1.30
2018-12-14T01:23:27.913Z,1.30
2018-12-14T01:25:56.044Z,1.40
2018-12-14T01:28:24.179Z,1.40
2018-12-14T01:30:52.331Z,1.40
2018-12-14T01:33:20.479Z,1.40
2018-12-14T01:35:49.129Z,1.40
2018-12-14T01:38:17.247Z,1.40
2018-12-14T01:40:45.395Z,1.40
2018-12-14T01:43:13.551Z,1.40
2018-12-14T01:45:41.697Z,1.30
2018-12-14T01:48:09.854Z,1.30
2018-12-14T01:50:38.016Z,1.30
2018-12-14T01:53:06.596Z,1.30
2018-12-14T01:55:34.769Z,1.30
2018-12-14T01:58:02.904Z,1.20
2018-12-14T02:00:31.153Z,1.20
2018-12-14T02:02:59.292Z,1.20
2018-12-14T02:05:27.465Z,1.30
2018-12-14T02:07:55.744Z,1.30
2018-12-14T02:10:23.892Z,1.30
2018-12-14T02:12:52.087Z,1.30
2018-12-14T02:15:20.469Z,1.30
2018-12-14T02:17:48.871Z,1.30
2018-12-14T02:20:17.022Z,1.30
2018-12-14T02:22:45.149Z,1.30
2018-12-14T02:25:13.296Z,1.30
2018-12-14T02:27:41.412Z,1.30
2018-12-14T02:30:20.877Z,1.30
2018-12-14T02:32:49.048Z,1.30
2018-12-14T02:35:17.237Z,1.20
2018-12-14T02:37:45.436Z,1.30
2018-12-14T02:40:13.814Z,1.30
2018-12-14T02:42:41.970Z,1.30
2018-12-14T02:45:10.112Z,1.30
2018-12-14T02:47:38.307Z,1.40
2018-12-14T02:50:06.740Z,1.40
2018-12-14T02:52:34.956Z,1.40
2018-12-14T02:55:03.254Z,1.30
2018-12-14T02:57:31.420Z,1.30
2018-12-14T02:59:59.555Z,1.30
2018-12-14T03:02:27.759Z,1.30
2018-12-14T03:04:56.005Z,1.30
2018-12-14T03:07:24.206Z,1.30
2018-12-14T03:09:52.432Z,1.30
2018-12-14T03:12:26.713Z,1.30
2018-12-14T03:14:50.769Z,1.30
2018-12-14T03:17:19.340Z,1.30
2018-12-14T03:19:48.245Z,1.20
2018-12-14T03:22:16.664Z,1.30
2018-12-14T03:24:45.090Z,1.30
2018-12-14T03:27:13.280Z,1.20
2018-12-14T03:29:41.548Z,1.30
2018-12-14T03:32:09.791Z,1.20
2018-12-14T03:34:38.047Z,1.20
2018-12-14T03:37:06.365Z,1.30
2018-12-14T03:39:34.531Z,1.30
2018-12-14T03:42:02.846Z,1.30
2018-12-14T03:44:31.436Z,1.30
2018-12-14T03:46:59.689Z,1.30
2018-12-14T03:49:27.845Z,1.30
2018-12-14T03:51:56.060Z,1.20
2018-12-14T03:54:24.211Z,1.20
2018-12-14T03:56:52.348Z,1.30
2018-12-14T03:59:20.544Z,1.30
2018-12-14T04:01:48.808Z,1.30
2018-12-14T04:04:16.972Z,1.30
2018-12-14T04:06:45.290Z,1.30
2018-12-14T04:09:13.458Z,1.30
2018-12-14T04:11:41.551Z,1.30
2018-12-14T04:14:09.700Z,1.30
2018-12-14T04:16:38.264Z,1.30
2018-12-14T04:19:06.451Z,1.30
2018-12-14T04:21:34.571Z,1.20
2018-12-14T04:24:02.748Z,1.30
2018-12-14T04:26:30.930Z,1.30
2018-12-14T04:28:59.142Z,1.20
2018-12-14T04:31:27.274Z,1.20
2018-12-14T04:33:55.484Z,1.20
2018-12-14T04:36:23.772Z,1.20
2018-12-14T04:38:51.939Z,1.20
2018-12-14T04:41:20.086Z,1.20
2018-12-14T04:43:48.380Z,1.20
2018-12-14T04:46:16.546Z,1.20
2018-12-14T04:48:44.671Z,1.20
2018-12-14T04:51:12.825Z,1.20
2018-12-14T04:53:40.951Z,1.20
2018-12-14T04:56:09.076Z,1.20
2018-12-14T04:58:37.243Z,1.20
2018-12-14T05:01:05.470Z,1.20
2018-12-14T05:03:33.628Z,1.20
2018-12-14T05:06:01.830Z,1.20
2018-12-14T05:08:29.953Z,1.10
2018-12-14T05:10:58.104Z,1.10
2018-12-14T05:13:26.238Z,1.20
2018-12-14T05:15:54.674Z,1.10
2018-12-14T05:18:22.899Z,1.10
2018-12-14T05:20:51.026Z,1.10
2018-12-14T05:23:19.276Z,1.00
2018-12-14T05:25:48.252Z,1.10
2018-12-14T05:28:16.367Z,1.10
2018-12-14T05:30:44.546Z,1.10
2018-12-14T05:33:12.781Z,1.10
2018-12-14T05:35:41.018Z,1.10
2018-12-14T05:38:09.245Z,1.10
2018-12-14T05:40:37.388Z,1.10
2018-12-14T05:43:05.499Z,1.10
2018-12-14T05:45:33.743Z,1.20
2018-12-14T05:48:01.965Z,1.10
2018-12-14T05:50:30.208Z,1.00
2018-12-14T05:52:58.367Z,1.10
2018-12-14T05:55:26.587Z,1.10
2018-12-14T05:57:54.873Z,1.10
2018-12-14T06:00:23.129Z,1.10
2018-12-14T06:02:51.280Z,1.10
2018-12-14T06:05:19.598Z,1.10
2018-12-14T06:07:47.744Z,1.10
2018-12-14T06:10:15.875Z,1.10
2018-12-14T06:12:44.031Z,1.10
2018-12-14T06:15:12.199Z,1.10
2018-12-14T06:17:40.386Z,1.10
2018-12-14T06:20:08.587Z,1.10
2018-12-14T06:22:36.809Z,1.10
2018-12-14T06:25:05.097Z,1.10
2018-12-14T06:27:33.326Z,1.10
2018-12-14T06:30:01.523Z,1.10
2018-12-14T06:32:29.725Z,1.10
2018-12-14T06:34:57.921Z,1.10
2018-12-14T06:37:26.368Z,1.10
2018-12-14T06:39:54.582Z,1.10
2018-12-14T06:42:22.897Z,1.00
2018-12-14T06:44:51.190Z,1.00
2018-12-14T06:47:19.344Z,1.00
2018-12-14T06:49:47.644Z,1.00
2018-12-14T06:52:16.036Z,1.00
2018-12-14T06:54:44.348Z,0.90
2018-12-14T06:57:12.568Z,0.90
2018-12-14T06:59:40.758Z,0.90
2018-12-14T07:02:09.058Z,0.90
2018-12-14T07:04:37.191Z,0.90
2018-12-14T07:07:05.491Z,0.90
2018-12-14T07:09:34.236Z,0.90
2018-12-14T07:12:02.471Z,0.90
2018-12-14T07:14:30.623Z,0.90
2018-12-14T07:16:58.773Z,0.90
2018-12-14T07:19:27.080Z,0.90
2018-12-14T07:21:55.196Z,1.00
2018-12-14T07:24:23.328Z,1.00
2018-12-14T07:26:51.576Z,1.10
2018-12-14T07:29:19.696Z,1.10
2018-12-14T07:31:47.903Z,1.10
2018-12-14T07:34:16.162Z,1.10
2018-12-14T07:36:44.393Z,1.10
2018-12-14T07:39:12.683Z,1.10
2018-12-14T07:41:40.792Z,1.10
2018-12-14T07:44:09.002Z,1.10
2018-12-14T07:46:37.228Z,1.10
2018-12-14T07:49:05.526Z,1.10
2018-12-14T07:51:33.769Z,1.10
2018-12-14T07:54:02.144Z,1.10
2018-12-14T07:56:36.888Z,1.10
2018-12-14T07:59:05.217Z,1.10
2018-12-14T08:01:33.488Z,1.10
2018-12-14T08:04:01.682Z,1.10
2018-12-14T08:06:29.903Z,1.10
2018-12-14T08:08:58.016Z,1.00
2018-12-14T08:11:26.155Z,1.00
2018-12-14T08:13:54.446Z,1.10
2018-12-14T08:16:22.607Z,1.00
2018-12-14T08:18:50.833Z,1.10
2018-12-14T08:21:19.094Z,1.10
2018-12-14T08:23:47.228Z,1.10
2018-12-14T08:26:15.347Z,1.10
2018-12-14T08:28:43.495Z,1.10
2018-12-14T08:31:11.672Z,1.10
2018-12-14T08:33:39.832Z,1.10
2018-12-14T08:36:08.482Z,1.10
2018-12-14T08:38:36.693Z,1.10
2018-12-14T08:41:04.900Z,1.10
2018-12-14T08:43:33.101Z,1.10
2018-12-14T08:46:01.237Z,1.10
2018-12-14T08:48:29.519Z,1.10
2018-12-14T08:50:57.725Z,1.20
2018-12-14T08:53:26.133Z,1.20
2018-12-14T08:55:54.505Z,1.20
2018-12-14T08:58:22.629Z,1.20
2018-12-14T09:00:50.743Z,1.20
2018-12-14T09:03:18.876Z,1.20
2018-12-14T09:05:46.987Z,1.30
2018-12-14T09:08:15.180Z,1.30
2018-12-14T09:10:43.380Z,1.30
2018-12-14T09:13:11.508Z,1.30
2018-12-14T09:15:39.665Z,1.40
2018-12-14T09:18:07.932Z,1.40
2018-12-14T09:20:36.068Z,1.40
2018-12-14T09:23:04.421Z,1.40
2018-12-14T09:25:32.540Z,1.40
2018-12-14T09:28:00.653Z,1.50
2018-12-14T09:30:28.952Z,1.50
2018-12-14T09:32:57.088Z,1.50
2018-12-14T09:35:25.232Z,1.50
2018-12-14T09:37:53.348Z,1.60
2018-12-14T09:40:21.480Z,1.60
2018-12-14T09:42:49.689Z,1.60
2018-12-14T09:45:17.820Z,1.60
2018-12-14T09:47:45.936Z,1.50
2018-12-14T09:50:14.094Z,1.50
2018-12-14T09:52:42.199Z,1.50
2018-12-14T09:55:10.548Z,1.50
2018-12-14T09:57:38.666Z,1.50
2018-12-14T10:00:06.943Z,1.50
2018-12-14T10:02:35.275Z,1.50
2018-12-14T10:05:03.623Z,1.50
2018-12-14T10:07:31.841Z,1.60
2018-12-14T10:09:59.951Z,1.60
2018-12-14T10:12:28.156Z,1.60
2018-12-14T10:14:56.287Z,1.60
2018-12-14T10:17:24.460Z,1.70
2018-12-14T10:19:52.615Z,1.70
2018-12-14T10:22:20.731Z,1.60
2018-12-14T10:24:48.980Z,1.60
2018-12-14T10:27:17.085Z,1.60
2018-12-14T10:29:45.365Z,1.60
2018-12-14T10:32:13.512Z,1.60
2018-12-14T10:34:41.675Z,1.60
2018-12-14T10:37:09.802Z,1.60
2018-12-14T10:39:37.927Z,1.60
2018-12-14T10:42:06.081Z,1.60
2018-12-14T10:44:34.203Z,1.60
2018-12-14T10:47:02.416Z,1.60
2018-12-14T10:49:30.680Z,1.60
2018-12-14T10:51:59.071Z,1.60
2018-12-14T10:54:27.920Z,1.60
2018-12-14T10:56:56.068Z,1.60
2018-12-14T10:59:24.297Z,1.60
2018-12-14T11:01:56.984Z,1.60
2018-12-14T11:04:25.533Z,1.70
2018-12-14T11:06:54.086Z,1.70
2018-12-14T11:09:22.365Z,1.80
2018-12-14T11:11:50.898Z,1.80
2018-12-14T11:14:19.028Z,1.80
2018-12-14T11:16:47.163Z,1.80
2018-12-14T11:19:15.379Z,1.90
2018-12-14T11:21:43.504Z,1.90
2018-12-14T11:24:11.636Z,1.80
2018-12-14T11:26:39.763Z,1.90
2018-12-14T11:29:07.957Z,1.90
2018-12-14T11:31:36.102Z,1.90
2018-12-14T11:34:04.376Z,1.90
2018-12-14T11:36:32.552Z,1.90
2018-12-14T11:39:07.103Z,1.90
2018-12-14T11:41:35.297Z,2.00
2018-12-14T11:44:03.528Z,2.00
2018-12-14T11:46:31.665Z,1.90
2018-12-14T11:48:59.800Z,1.90
2018-12-14T11:51:28.056Z,1.90
2018-12-14T11:53:56.179Z,1.90
2018-12-14T11:56:24.383Z,1.90
2018-12-14T11:58:52.498Z,1.80
2018-12-14T12:01:20.820Z,1.80
2018-12-14T12:03:48.936Z,1.80
2018-12-14T12:06:17.072Z,1.80
2018-12-14T12:08:45.241Z,1.80
2018-12-14T12:11:13.374Z,1.80
2018-12-14T12:13:41.619Z,1.70
2018-12-14T12:16:09.761Z,1.70
2018-12-14T12:18:37.952Z,1.70
2018-12-14T12:21:06.176Z,1.60
2018-12-14T12:23:34.403Z,1.60
2018-12-14T12:26:02.629Z,1.60
2018-12-14T12:28:30.861Z,1.60
2018-12-14T12:30:59.102Z,1.70
2018-12-14T12:33:27.290Z,1.60
2018-12-14T12:35:55.493Z,1.60
2018-12-14T12:38:23.702Z,1.60
2018-12-14T12:40:51.848Z,1.60
2018-12-14T12:43:21.041Z,1.50
2018-12-14T12:45:49.177Z,1.50
2018-12-14T12:48:17.343Z,1.50
2018-12-14T12:50:45.556Z,1.50
2018-12-14T12:53:16.136Z,1.50
2018-12-14T12:55:44.259Z,1.50
2018-12-14T12:58:12.492Z,1.50
2018-12-14T13:00:40.729Z,1.60
2018-12-14T13:03:08.991Z,1.50
2018-12-14T13:05:37.148Z,1.50
2018-12-14T13:08:05.379Z,1.50
2018-12-14T13:10:33.528Z,1.60
2018-12-14T13:13:01.662Z,1.60
2018-12-14T13:15:29.844Z,1.60
2018-12-14T13:17:58.056Z,1.60
2018-12-14T13:20:26.189Z,1.60
2018-12-14T13:22:54.407Z,1.50
2018-12-14T13:25:22.533Z,1.50
2018-12-14T13:27:50.869Z,1.50
2018-12-14T13:30:19.076Z,1.50
2018-12-14T13:32:47.242Z,1.50
2018-12-14T13:35:15.381Z,1.50
2018-12-14T13:37:43.603Z,1.60
2018-12-14T13:40:11.730Z,1.60
2018-12-14T13:42:39.967Z,1.50
2018-12-14T13:45:08.489Z,1.50
2018-12-14T13:47:36.765Z,1.50
2018-12-14T13:50:05.781Z,1.50
2018-12-14T13:52:33.920Z,1.40
2018-12-14T13:55:02.048Z,1.40
2018-12-14T13:57:30.273Z,1.40
2018-12-14T13:59:58.451Z,1.40
2018-12-14T14:02:26.627Z,1.40
2018-12-14T14:04:54.837Z,1.40
2018-12-14T14:07:23.048Z,1.40
2018-12-14T14:09:51.184Z,1.30
2018-12-14T14:12:19.627Z,1.30
2018-12-14T14:14:53.003Z,1.30
2018-12-14T14:17:18.392Z,1.30
2018-12-14T14:19:47.168Z,1.30
2018-12-14T14:22:16.056Z,1.30
2018-12-14T14:24:44.264Z,1.30
2018-12-14T14:27:12.492Z,1.30
2018-12-14T14:29:40.871Z,1.30
2018-12-14T14:32:09.105Z,1.30
2018-12-14T14:34:37.228Z,1.30
2018-12-14T14:37:05.407Z,1.20
2018-12-14T14:39:33.536Z,1.20
2018-12-14T14:42:01.774Z,1.20
2018-12-14T14:44:29.908Z,1.20
2018-12-14T14:46:58.097Z,1.10
2018-12-14T14:49:26.253Z,1.10
2018-12-14T14:51:54.740Z,1.10
2018-12-14T14:54:22.895Z,1.10
2018-12-14T14:56:51.099Z,1.10
2018-12-14T14:59:19.260Z,1.10
2018-12-14T15:01:47.476Z,1.00
2018-12-14T15:04:15.923Z,1.00
2018-12-14T15:06:44.307Z,1.10
2018-12-14T15:09:12.448Z,1.10
2018-12-14T15:11:40.806Z,1.00
2018-12-14T15:14:08.996Z,1.00
2018-12-14T15:16:37.107Z,1.00
2018-12-14T15:19:05.531Z,1.00
2018-12-14T15:21:33.715Z,0.90
2018-12-14T15:24:01.993Z,0.90
2018-12-14T15:26:30.117Z,0.90
2018-12-14T15:28:58.283Z,0.90
2018-12-14T15:31:26.411Z,0.80
2018-12-14T15:33:54.656Z,0.80
2018-12-14T15:36:22.880Z,0.80
2018-12-14T15:38:51.028Z,0.90
2018-12-14T15:41:19.153Z,0.80
2018-12-14T15:43:47.293Z,0.90
2018-12-14T15:46:15.434Z,0.80
2018-12-14T15:48:43.633Z,0.80
2018-12-14T15:51:11.752Z,0.80
2018-12-14T15:53:39.904Z,0.80
2018-12-14T15:56:08.178Z,0.70
2018-12-14T15:58:36.309Z,0.70
2018-12-14T16:01:04.576Z,0.70
2018-12-14T16:03:33.048Z,0.70
2018-12-14T16:06:01.192Z,0.70
2018-12-14T16:08:29.436Z,0.70
2018-12-14T16:10:57.644Z,0.70
2018-12-14T16:13:25.964Z,0.70
2018-12-14T16:15:54.162Z,0.70
2018-12-14T16:18:22.393Z,0.60
2018-12-14T16:20:50.602Z,0.70
2018-12-14T16:23:18.935Z,0.70
2018-12-14T16:25:47.108Z,0.70
2018-12-14T16:28:15.359Z,0.60
2018-12-14T16:30:43.488Z,0.60
2018-12-14T16:33:11.774Z,0.60
2018-12-14T16:35:40.032Z,0.60
2018-12-14T16:38:08.163Z,0.60
2018-12-14T16:40:36.387Z,0.50
2018-12-14T16:43:04.564Z,0.60
2018-12-14T16:45:32.840Z,0.60
2018-12-14T16:48:01.183Z,0.60
2018-12-14T16:50:29.480Z,0.60
2018-12-14T16:52:57.740Z,0.60
2018-12-14T16:55:25.945Z,0.60
2018-12-14T16:57:54.174Z,0.60
2018-12-14T17:00:22.351Z,0.60
2018-12-14T17:02:50.482Z,0.60
2018-12-14T17:05:18.961Z,0.60
2018-12-14T17:07:47.329Z,0.50
2018-12-14T17:10:15.678Z,0.50
2018-12-14T17:12:43.940Z,0.50
2018-12-14T17:15:12.189Z,0.50
2018-12-14T17:17:40.424Z,0.40
2018-12-14T17:20:08.798Z,0.50
2018-12-14T17:22:37.124Z,0.50
2018-12-14T17:25:06.136Z,0.50
2018-12-14T17:27:34.414Z,0.50
2018-12-14T17:30:02.841Z,0.50
2018-12-14T17:32:30.973Z,0.50
2018-12-14T17:34:59.491Z,0.50
2018-12-14T17:37:27.632Z,0.50
2018-12-14T17:39:55.848Z,0.50
2018-12-14T17:42:24.125Z,0.40
2018-12-14T17:44:52.301Z,0.40
2018-12-14T17:47:20.524Z,0.40
2018-12-14T17:49:48.702Z,0.40
2018-12-14T17:52:16.948Z,0.40
2018-12-14T17:54:45.209Z,0.50
2018-12-14T17:57:13.544Z,0.50
2018-12-14T17:59:42.104Z,0.50
2018-12-14T18:02:10.880Z,0.40
2018-12-14T18:04:39.121Z,0.40
2018-12-14T18:07:07.235Z,0.40
2018-12-14T18:09:35.462Z,0.40
2018-12-14T18:12:03.584Z,0.40
2018-12-14T18:14:33.236Z,0.40
2018-12-14T18:17:02.501Z,0.40
2018-12-14T18:19:30.790Z,0.30
2018-12-14T18:22:00.972Z,0.30
2018-12-14T18:24:29.213Z,0.30
2018-12-14T18:26:57.404Z,0.30
2018-12-14T18:29:25.757Z,0.30
2018-12-14T18:31:54.053Z,0.20
2018-12-14T18:34:28.559Z,0.30
2018-12-14T18:36:57.988Z,0.30
2018-12-14T18:39:26.364Z,0.30
2018-12-14T18:41:54.496Z,0.30
2018-12-14T18:44:22.657Z,0.30
2018-12-14T18:46:50.869Z,0.30
2018-12-14T18:49:19.221Z,0.30
2018-12-14T18:51:47.365Z,0.30
2018-12-14T18:54:15.614Z,0.20
2018-12-14T18:56:43.744Z,0.20
2018-12-14T18:59:14.421Z,0.20
2018-12-14T19:01:43.184Z,0.10
2018-12-14T19:04:11.447Z,0.10
2018-12-14T19:06:40.038Z,0.20
2018-12-14T19:09:08.244Z,0.20
2018-12-14T19:11:36.472Z,0.20
2018-12-14T19:14:04.712Z,0.20
2018-12-14T19:16:32.908Z,0.20
2018-12-14T19:19:01.157Z,0.20
2018-12-14T19:21:29.417Z,0.20
2018-12-14T19:23:57.654Z,0.20
2018-12-14T19:26:26.141Z,0.20
2018-12-14T19:28:54.345Z,0.20
2018-12-14T19:31:22.533Z,0.20
2018-12-14T19:33:50.750Z,0.20
2018-12-14T19:36:18.889Z,0.20
2018-12-14T19:38:47.077Z,0.20
2018-12-14T19:41:15.275Z,0.20
2018-12-14T19:43:43.608Z,0.20
2018-12-14T19:46:12.051Z,0.20
2018-12-14T19:48:40.302Z,0.20
2018-12-14T19:51:08.431Z,0.20
2018-12-14T19:53:36.642Z,0.20
2018-12-14T19:56:05.935Z,0.10
2018-12-14T19:58:34.591Z,0.10
2018-12-14T20:01:04.860Z,0.10
2018-12-14T20:03:33.010Z,0.10
2018-12-14T20:06:01.453Z,0.10
2018-12-14T20:08:31.742Z,0.10
2018-12-14T20:11:01.825Z,0.10
2018-12-14T20:13:30.799Z,0.10
2018-12-14T20:15:59.258Z,0.10
2018-12-14T20:18:27.560Z,0.10
2018-12-14T20:20:57.127Z,0.10
2018-12-14T20:23:27.407Z,0.10
2018-12-14T20:25:55.636Z,0.10
2018-12-14T20:28:23.918Z,0.20
2018-12-14T20:30:52.052Z,0.20
2018-12-14T20:33:38.149Z,0.10
2018-12-14T20:36:08.825Z,0.10
2018-12-14T20:38:37.131Z,0.10
2018-12-14T20:41:05.538Z,0.10
2018-12-14T20:43:35.307Z,0.10
2018-12-14T20:46:04.661Z,0.10
2018-12-14T20:48:32.804Z,0.10
2018-12-14T20:51:01.078Z,0.00
2018-12-14T20:53:29.336Z,0.00
2018-12-14T20:56:02.327Z,0.00
2018-12-14T20:58:31.919Z,0.10
2018-12-14T21:01:00.139Z,0.10
2018-12-14T21:03:29.139Z,0.00
2018-12-14T21:05:59.249Z,0.00
2018-12-14T21:08:27.986Z,0.10
2018-12-14T21:10:57.339Z,0.10
2018-12-14T21:13:25.546Z,0.10
2018-12-14T21:15:53.708Z,0.00
2018-12-14T21:18:24.093Z,0.00
2018-12-14T21:20:52.339Z,0.00
2018-12-14T21:23:20.550Z,0.00
2018-12-14T21:25:48.744Z,0.00
2018-12-14T21:28:17.185Z,-0.10
2018-12-14T21:30:45.431Z,0.00
2018-12-14T21:33:13.633Z,0.00
2018-12-14T21:35:41.880Z,0.00
2018-12-14T21:38:09.991Z,0.00
2018-12-14T21:40:38.132Z,0.00
2018-12-14T21:43:06.383Z,0.00
2018-12-14T21:45:34.634Z,0.00
2018-12-14T21:48:02.892Z,0.00
2018-12-14T21:50:31.221Z,0.00
2018-12-14T21:52:59.673Z,0.00
2018-12-14T21:55:28.143Z,0.00
2018-12-14T21:57:56.644Z,0.00
2018-12-14T22:00:24.981Z,0.00
2018-12-14T22:02:53.213Z,-0.10
2018-12-14T22:05:21.676Z,-0.10
2018-12-14T22:07:50.549Z,-0.10
2018-12-14T22:10:18.915Z,0.00
2018-12-14T22:12:47.063Z,0.00
2018-12-14T22:15:15.339Z,0.00
2018-12-14T22:17:43.918Z,0.10
2018-12-14T22:20:12.631Z,0.10
2018-12-14T22:22:40.801Z,0.10
2018-12-14T22:25:09.152Z,0.00
2018-12-14T22:27:44.077Z,0.00
2018-12-14T22:30:12.757Z,0.00
2018-12-14T22:32:40.930Z,-0.10
2018-12-14T22:35:09.230Z,-0.10
2018-12-14T22:37:37.635Z,-0.10
2018-12-14T22:40:07.345Z,-0.10
2018-12-14T22:42:35.595Z,-0.10
2018-12-14T22:45:04.763Z,-0.20
2018-12-14T22:47:32.929Z,-0.20
2018-12-14T22:50:01.184Z,-0.20
2018-12-14T22:52:29.351Z,-0.20
2018-12-14T22:54:57.706Z,-0.20
2018-12-14T22:57:26.013Z,-0.20
2018-12-14T22:59:54.586Z,-0.10
2018-12-14T23:02:22.918Z,-0.10
2018-12-14T23:04:57.636Z,-0.10
2018-12-14T23:07:26.242Z,-0.10
2018-12-14T23:09:54.538Z,-0.10
2018-12-14T23:12:23.013Z,-0.20
2018-12-14T23:14:51.235Z,-0.20
2018-12-14T23:17:19.400Z,-0.20
2018-12-14T23:19:47.705Z,-0.20
2018-12-14T23:22:15.990Z,-0.20
2018-12-14T23:24:44.172Z,-0.20
2018-12-14T23:27:12.449Z,-0.20
2018-12-14T23:29:40.585Z,-0.20
2018-12-14T23:32:09.300Z,-0.20
2018-12-14T23:34:37.644Z,-0.20
2018-12-14T23:37:05.848Z,-0.30
2018-12-14T23:39:34.322Z,-0.30
2018-12-14T23:42:02.660Z,-0.30
2018-12-14T23:44:30.897Z,-0.30
2018-12-14T23:46:59.188Z,-0.30
2018-12-14T23:49:27.395Z,-0.30
2018-12-14T23:51:55.601Z,-0.20
2018-12-14T23:54:24.080Z,-0.30
2018-12-14T23:56:52.454Z,-0.30
2018-12-14T23:59:20.657Z,-0.30
